Lincoln, Argentina
Current Conditions -  °F | °C
As of 11:00 AM on Friday 24 Oct 2014 (Local Time) from SAAR Reporting Station
Clear Clear  
Wind Chill: 86°   Ceiling: Unl
Heat Index: 87°   Visibility: 6mi
Dew Point: 64°   Wind: 5mph
Humidity: 48%   Direction: 20°NNE
Pressure: 29.97"   Gusts: NA
Location:  34.87°S, 61.53°W
Report Text: SAAR 241400Z 02004KT CAVOK 30/18 Q1015
Loading
Personal Weather Stations






























Interactive Weather Map
Tropical Storm Tracking
New forecast layout! Learn more

10-Day Weather Forecast

Advertisements
Track Severe Weather on mobile